Time;durP1;ratioP1;P1;durP2;ratioP2;P2;SDS_P1;SDS_P2;PMS_P1;PMS_P2;Temp;Humidity;BMP_temperature;BMP_pressure;BME280_temperature;BME280_humidity;BME280_pressure;Samples;Min_cycle;Max_cycle;Signal;HPM_P1;HPM_P2
2023/10/14 00:00:58;;;;;;;;;;;;;;;17.45;42.43;100072.44;3170102;28;19924;-66
2023/10/14 00:02:29;;;;;;;;;;;;;;;17.45;42.52;100071.56;3170181;28;19924;-65
2023/10/14 00:04:04;;;;;;;;;;;;;;;17.46;42.44;100074.09;3170232;28;20335;-65
2023/10/14 00:05:36;;;;;;;;;;;;;;;17.45;42.43;100069.78;3169999;28;19989;-65
2023/10/14 00:07:08;;;;;;;;;;;;;;;17.44;42.35;100068.09;3170229;28;19928;-65
2023/10/14 00:08:47;;;;;;;;;;;;;;;17.43;42.23;100068.22;3170248;28;19924;-65
2023/10/14 00:10:18;;;;;;;;;;;;;;;17.40;42.45;100060.53;3170312;28;19942;-66
2023/10/14 00:11:54;;;;;;;;;;;;;;;17.40;42.52;100071.06;3158842;28;19924;-65
2023/10/14 00:13:30;;;;;;;;;;;;;;;17.39;42.34;100067.59;3169943;28;20002;-65
2023/10/14 00:15:05;;;;;;;;;;;;;;;17.37;42.39;100066.84;3170308;28;19938;-67
2023/10/14 00:16:36;;;;;;;;;;;;;;;17.37;42.45;100056.31;3170015;28;19928;-66
2023/10/14 00:18:08;;;;;;;;;;;;;;;17.37;42.45;100060.75;3170169;28;19946;-66
2023/10/14 00:19:38;;;;;;;;;;;;;;;17.35;42.43;100058.19;3170023;28;19974;-67
2023/10/14 00:21:15;;;;;;;;;;;;;;;17.34;42.39;100058.31;3169772;28;19924;-67
2023/10/14 00:22:45;;;;;;;;;;;;;;;17.32;42.32;100061.03;3163694;28;19966;-66
2023/10/14 00:24:25;;;;;;;;;;;;;;;17.28;42.59;100052.53;3169844;28;19931;-69
2023/10/14 00:25:57;;;;;;;;;;;;;;;17.26;42.46;100056.22;3169743;28;20010;-65
2023/10/14 00:27:28;;;;;;;;;;;;;;;17.26;42.56;100050.94;3170066;28;19924;-63
2023/10/14 00:29:16;;;;;;;;;;;;;;;17.27;42.51;100044.72;3170139;28;19924;-67
2023/10/14 00:30:48;;;;;;;;;;;;;;;17.26;42.63;100046.50;3169703;28;19924;-64
2023/10/14 00:32:19;;;;;;;;;;;;;;;17.25;42.49;100038.75;3169952;28;20517;-67
2023/10/14 00:33:52;;;;;;;;;;;;;;;17.23;42.64;100038.84;3169833;28;19924;-65
2023/10/14 00:35:26;;;;;;;;;;;;;;;17.17;42.69;100028.72;3170014;28;20455;-66
2023/10/14 00:36:58;;;;;;;;;;;;;;;17.10;42.63;100043.28;3170155;28;20313;-64
2023/10/14 00:38:34;;;;;;;;;;;;;;;17.05;42.89;100040.94;3169809;28;19967;-64
2023/10/14 00:40:10;;;;;;;;;;;;;;;17.05;42.96;100042.72;3169724;28;19928;-64
2023/10/14 00:41:43;;;;;;;;;;;;;;;17.03;43.04;100042.81;3169674;28;19924;-65
2023/10/14 00:43:13;;;;;;;;;;;;;;;17.00;43.00;100037.78;3170206;28;19974;-65
2023/10/14 00:44:46;;;;;;;;;;;;;;;16.96;43.24;100030.22;3169758;28;20414;-65
2023/10/14 00:46:17;;;;;;;;;;;;;;;16.92;43.04;100032.22;3169703;28;20458;-64
2023/10/14 00:47:49;;;;;;;;;;;;;;;16.91;43.13;100033.13;3170212;28;20002;-65
2023/10/14 00:49:22;;;;;;;;;;;;;;;16.91;43.12;100022.63;3169837;28;19939;-65
2023/10/14 00:50:57;;;;;;;;;;;;;;;16.93;43.01;100028.63;3169600;28;20387;-65
2023/10/14 00:52:29;;;;;;;;;;;;;;;16.94;42.99;100025.03;3169116;28;20401;-65
2023/10/14 00:54:02;;;;;;;;;;;;;;;16.97;42.97;100016.09;3165527;28;19989;-65
2023/10/14 00:55:46;;;;;;;;;;;;;;;16.96;43.05;100011.78;3159390;28;19928;-65
2023/10/14 00:57:21;;;;;;;;;;;;;;;16.96;42.98;100015.25;3166048;28;19924;-65
2023/10/14 00:58:57;;;;;;;;;;;;;;;16.95;42.84;100005.69;3170006;28;20361;-66
2023/10/14 01:00:37;;;;;;;;;;;;;;;16.95;43.05;100010.97;3170243;28;20001;-66
2023/10/14 01:02:09;;;;;;;;;;;;;;;16.93;43.02;100018.09;3169250;28;19976;-67
2023/10/14 01:03:40;;;;;;;;;;;;;;;16.91;43.18;100014.72;3169442;28;19924;-67
2023/10/14 01:05:18;;;;;;;;;;;;;;;16.87;43.28;100005.38;3169846;28;19927;-66
2023/10/14 01:07:02;;;;;;;;;;;;;;;16.83;43.49;100010.00;3169925;28;19924;-67
2023/10/14 01:08:38;;;;;;;;;;;;;;;16.77;43.53;100004.28;3170151;28;19924;-66
2023/10/14 01:10:13;;;;;;;;;;;;;;;16.76;43.58;100002.63;3172021;28;19977;-67
2023/10/14 01:11:44;;;;;;;;;;;;;;;16.73;43.41;100008.06;3161154;28;20370;-67
2023/10/14 01:13:15;;;;;;;;;;;;;;;16.72;43.48;100009.00;3172205;28;19928;-66
2023/10/14 01:14:52;;;;;;;;;;;;;;;16.69;43.52;100002.16;3172351;28;20098;-66
2023/10/14 01:16:24;;;;;;;;;;;;;;;16.68;43.69;100003.13;3172237;28;19931;-66
2023/10/14 01:17:55;;;;;;;;;;;;;;;16.65;43.64;100003.28;3171952;28;19928;-66
2023/10/14 01:19:28;;;;;;;;;;;;;;;16.63;43.81;99997.31;3172049;28;20072;-66
2023/10/14 01:20:58;;;;;;;;;;;;;;;16.62;43.71;100003.50;3172292;28;19930;-66
2023/10/14 01:22:31;;;;;;;;;;;;;;;16.59;43.66;99994.06;3169859;28;19931;-66
2023/10/14 01:24:15;;;;;;;;;;;;;;;16.57;43.84;99995.94;3168905;28;19924;-67
2023/10/14 01:25:51;;;;;;;;;;;;;;;16.54;43.77;99998.78;3165810;28;19936;-66
2023/10/14 01:27:24;;;;;;;;;;;;;;;16.55;43.60;99994.34;3169819;28;19924;-66
2023/10/14 01:28:59;;;;;;;;;;;;;;;16.53;44.02;99991.84;3172123;28;19936;-67
2023/10/14 01:30:32;;;;;;;;;;;;;;;16.54;43.97;99990.88;3171849;28;19931;-66
2023/10/14 01:32:10;;;;;;;;;;;;;;;16.55;43.84;99991.72;3171284;28;19924;-65
2023/10/14 01:33:42;;;;;;;;;;;;;;;16.53;43.81;99994.47;3167068;28;19932;-65
2023/10/14 01:35:22;;;;;;;;;;;;;;;16.52;43.87;99991.94;3171695;28;19931;-66
2023/10/14 01:36:55;;;;;;;;;;;;;;;16.50;43.87;99989.38;3171660;28;20048;-66
2023/10/14 01:38:30;;;;;;;;;;;;;;;16.48;43.90;99985.22;3171855;28;20366;-66
2023/10/14 01:40:17;;;;;;;;;;;;;;;16.45;43.83;99980.16;3171931;28;19932;-65
2023/10/14 01:41:48;;;;;;;;;;;;;;;16.43;43.98;99985.50;3166652;28;20369;-66
2023/10/14 01:43:24;;;;;;;;;;;;;;;16.44;43.90;99983.72;3171734;28;19981;-65
2023/10/14 01:44:56;;;;;;;;;;;;;;;16.43;44.07;99985.50;3171536;28;19923;-65
2023/10/14 01:46:27;;;;;;;;;;;;;;;16.42;44.17;99991.72;3171912;28;19924;-65
2023/10/14 01:48:12;;;;;;;;;;;;;;;16.39;44.13;99989.28;3171412;28;20004;-65
2023/10/14 01:49:43;;;;;;;;;;;;;;;16.34;44.26;99991.38;3171705;28;20004;-66
2023/10/14 01:51:14;;;;;;;;;;;;;;;16.30;44.12;99996.00;3171657;28;19924;-66
2023/10/14 01:52:52;;;;;;;;;;;;;;;16.27;44.15;99995.34;3168586;28;19934;-66
2023/10/14 01:54:24;;;;;;;;;;;;;;;16.24;44.24;99999.03;3168127;28;19924;-66
2023/10/14 01:55:57;;;;;;;;;;;;;;;16.21;44.51;99995.72;3161668;28;19928;-68
2023/10/14 01:57:28;;;;;;;;;;;;;;;16.18;44.38;99990.69;3166558;28;19932;-67
2023/10/14 01:58:59;;;;;;;;;;;;;;;16.15;44.51;99986.50;3171776;28;19923;-67
2023/10/14 02:00:37;;;;;;;;;;;;;;;16.12;44.78;99986.69;3171682;28;19957;-67
2023/10/14 02:02:10;;;;;;;;;;;;;;;16.09;44.78;99989.50;3171363;28;20435;-67
2023/10/14 02:03:43;;;;;;;;;;;;;;;16.04;45.03;99988.97;3171423;28;20411;-66
2023/10/14 02:05:16;;;;;;;;;;;;;;;15.98;45.25;99984.13;3171091;28;19923;-66
2023/10/14 02:07:01;;;;;;;;;;;;;;;15.91;45.55;99984.50;3171761;28;20301;-66
2023/10/14 02:08:33;;;;;;;;;;;;;;;15.86;45.51;99981.31;3171504;28;19924;-65
2023/10/14 02:10:05;;;;;;;;;;;;;;;15.84;45.46;99982.38;3170867;28;19930;-66
2023/10/14 02:11:38;;;;;;;;;;;;;;;15.83;45.71;99983.31;3171316;28;20408;-65
2023/10/14 02:13:08;;;;;;;;;;;;;;;15.80;45.80;99979.09;3171644;28;19924;-66
2023/10/14 02:14:44;;;;;;;;;;;;;;;15.77;45.83;99978.47;3171227;28;19924;-66
2023/10/14 02:16:15;;;;;;;;;;;;;;;15.73;45.81;99985.66;3171073;28;19928;-66
2023/10/14 02:17:47;;;;;;;;;;;;;;;15.71;46.23;99989.34;3171113;28;19977;-66
2023/10/14 02:19:21;;;;;;;;;;;;;;;15.67;46.26;99978.16;3171333;28;20010;-66
2023/10/14 02:21:04;;;;;;;;;;;;;;;15.57;46.41;99972.66;3171113;28;19963;-65
2023/10/14 02:22:38;;;;;;;;;;;;;;;15.58;46.64;99984.81;3169151;28;19935;-65
2023/10/14 02:24:10;;;;;;;;;;;;;;;15.55;46.50;99984.19;3168088;28;19930;-65
2023/10/14 02:25:43;;;;;;;;;;;;;;;15.54;46.68;99978.09;3164857;28;20047;-64
2023/10/14 02:27:15;;;;;;;;;;;;;;;15.52;46.78;99977.34;3166630;28;20261;-65
2023/10/14 02:28:46;;;;;;;;;;;;;;;15.52;46.39;99976.50;3170978;28;19928;-64
2023/10/14 02:30:17;;;;;;;;;;;;;;;15.53;46.58;99975.53;3170953;28;19924;-64
2023/10/14 02:31:48;;;;;;;;;;;;;;;15.54;46.47;99970.22;3171021;28;19924;-65
2023/10/14 02:33:20;;;;;;;;;;;;;;;15.55;46.36;99976.31;3171038;28;19931;-65
2023/10/14 02:34:52;;;;;;;;;;;;;;;15.56;46.34;99973.59;3170691;28;19951;-65
2023/10/14 02:36:28;;;;;;;;;;;;;;;15.55;46.44;99968.44;3171312;28;19970;-63
2023/10/14 02:38:00;;;;;;;;;;;;;;;15.52;46.59;99971.25;3171150;28;19924;-64
2023/10/14 02:39:32;;;;;;;;;;;;;;;15.48;46.67;99967.97;3171091;28;19932;-64
2023/10/14 02:41:04;;;;;;;;;;;;;;;15.42;46.80;99974.44;3170709;28;20091;-64
2023/10/14 02:42:35;;;;;;;;;;;;;;;15.41;46.71;99969.28;3171287;28;19980;-64
2023/10/14 02:44:19;;;;;;;;;;;;;;;15.41;46.63;99962.28;3170851;28;20050;-64
2023/10/14 02:45:50;;;;;;;;;;;;;;;15.43;46.55;99967.41;3162972;28;20309;-65
2023/10/14 02:47:26;;;;;;;;;;;;;;;15.45;46.54;99970.78;3158557;28;20023;-64
2023/10/14 02:49:02;;;;;;;;;;;;;;;15.49;46.21;99977.53;3171253;28;19924;-64
2023/10/14 02:50:34;;;;;;;;;;;;;;;15.49;46.46;99974.91;3171182;28;19931;-65
2023/10/14 02:52:08;;;;;;;;;;;;;;;15.48;46.27;99979.31;3170715;28;19950;-64
2023/10/14 02:53:42;;;;;;;;;;;;;;;15.50;46.30;99979.22;3165392;28;19927;-64
2023/10/14 02:55:25;;;;;;;;;;;;;;;15.51;46.12;99975.66;3170746;28;19924;-65
2023/10/14 02:56:59;;;;;;;;;;;;;;;15.48;46.27;99981.94;3167110;28;20470;-65
2023/10/14 02:58:31;;;;;;;;;;;;;;;15.46;46.27;99978.56;3169637;28;20415;-64
2023/10/14 03:00:05;;;;;;;;;;;;;;;15.46;46.34;99980.34;3170848;28;19931;-65
2023/10/14 03:01:40;;;;;;;;;;;;;;;15.46;46.12;99973.31;3170498;28;20007;-64
2023/10/14 03:03:12;;;;;;;;;;;;;;;15.48;46.28;99975.84;3170500;28;20206;-65
2023/10/14 03:04:55;;;;;;;;;;;;;;;15.47;46.10;99980.25;3170703;28;19935;-65
2023/10/14 03:06:30;;;;;;;;;;;;;;;15.45;46.21;99981.28;3168589;28;19928;-65
2023/10/14 03:08:08;;;;;;;;;;;;;;;15.44;46.15;99983.06;3170667;28;19935;-64
2023/10/14 03:09:40;;;;;;;;;;;;;;;15.42;46.24;99982.31;3170893;28;19931;-65
2023/10/14 03:11:17;;;;;;;;;;;;;;;15.37;46.24;99984.38;3163479;28;19935;-66
2023/10/14 03:12:49;;;;;;;;;;;;;;;15.31;46.49;99982.13;3167587;28;19927;-65
2023/10/14 03:14:21;;;;;;;;;;;;;;;15.24;46.83;99984.31;3170803;28;20022;-65
2023/10/14 03:15:54;;;;;;;;;;;;;;;15.15;47.30;99987.50;3170491;28;19980;-64
2023/10/14 03:17:25;;;;;;;;;;;;;;;15.11;47.20;99983.34;3170522;28;19928;-65
2023/10/14 03:18:56;;;;;;;;;;;;;;;15.07;47.13;99978.41;3170215;28;19932;-65
2023/10/14 03:20:39;;;;;;;;;;;;;;;15.06;47.02;99974.94;3170447;28;19924;-64
2023/10/14 03:22:12;;;;;;;;;;;;;;;15.07;47.04;99978.41;3170526;28;20057;-64
2023/10/14 03:23:45;;;;;;;;;;;;;;;15.05;47.20;99978.50;3168475;28;20022;-64
2023/10/14 03:25:23;;;;;;;;;;;;;;;14.99;47.45;99979.69;3169984;28;19981;-64
2023/10/14 03:27:01;;;;;;;;;;;;;;;14.91;47.81;99979.34;3163513;28;20710;-64
2023/10/14 03:28:37;;;;;;;;;;;;;;;14.83;48.22;99978.13;3170851;28;19924;-65
2023/10/14 03:30:11;;;;;;;;;;;;;;;14.75;48.40;99982.03;3170338;28;19928;-65
2023/10/14 03:31:44;;;;;;;;;;;;;;;14.71;48.50;99980.53;3170242;28;19935;-65
2023/10/14 03:33:19;;;;;;;;;;;;;;;14.64;48.64;99984.47;3170259;28;20006;-65
2023/10/14 03:34:52;;;;;;;;;;;;;;;14.59;48.62;99977.78;3170497;28;19924;-65
2023/10/14 03:36:28;;;;;;;;;;;;;;;14.55;48.90;99980.59;3170446;28;20015;-65
2023/10/14 03:38:05;;;;;;;;;;;;;;;14.56;48.54;99976.19;3170262;28;19924;-66
2023/10/14 03:39:41;;;;;;;;;;;;;;;14.57;48.37;99970.84;3170217;28;19996;-66
2023/10/14 03:41:18;;;;;;;;;;;;;;;14.55;48.44;99975.34;3165171;28;19928;-66
2023/10/14 03:42:54;;;;;;;;;;;;;;;14.59;48.47;99981.25;3170451;28;19924;-66
2023/10/14 03:44:27;;;;;;;;;;;;;;;14.63;48.07;99974.03;3170176;28;19930;-64
2023/10/14 03:46:03;;;;;;;;;;;;;;;14.63;48.43;99982.75;3169755;28;20015;-65
2023/10/14 03:47:34;;;;;;;;;;;;;;;14.61;48.22;99974.16;3170020;28;19923;-64
2023/10/14 03:49:11;;;;;;;;;;;;;;;14.59;48.28;99977.78;3170387;28;19934;-65
2023/10/14 03:50:42;;;;;;;;;;;;;;;14.54;48.54;99971.03;3170343;28;19928;-65
2023/10/14 03:52:14;;;;;;;;;;;;;;;14.49;48.82;99973.06;3170368;28;19931;-68
2023/10/14 03:53:44;;;;;;;;;;;;;;;14.46;48.93;99986.31;3169618;28;19931;-64
2023/10/14 03:55:19;;;;;;;;;;;;;;;14.45;48.74;99978.56;3169742;28;19932;-63
2023/10/14 03:56:51;;;;;;;;;;;;;;;14.46;48.86;99980.25;3167264;28;20452;-63
2023/10/14 03:58:22;;;;;;;;;;;;;;;14.46;48.76;99977.63;3164296;28;19928;-64
2023/10/14 03:59:55;;;;;;;;;;;;;;;14.45;48.71;99979.41;3161668;28;19931;-64
2023/10/14 04:01:33;;;;;;;;;;;;;;;14.43;48.82;99973.41;3170398;28;19996;-64
2023/10/14 04:03:11;;;;;;;;;;;;;;;14.44;48.62;99972.47;3169902;28;20439;-65
2023/10/14 04:04:43;;;;;;;;;;;;;;;14.46;48.64;99975.84;3170031;28;19934;-65
2023/10/14 04:06:15;;;;;;;;;;;;;;;14.48;48.58;99973.97;3169714;28;19923;-65
2023/10/14 04:07:46;;;;;;;;;;;;;;;14.51;48.23;99973.84;3170144;28;20006;-66
2023/10/14 04:09:23;;;;;;;;;;;;;;;14.51;48.54;99971.22;3170181;28;19931;-66
2023/10/14 04:11:09;;;;;;;;;;;;;;;14.51;48.39;99970.34;3166693;28;20001;-66
2023/10/14 04:12:53;;;;;;;;;;;;;;;14.47;48.42;99971.47;3169973;28;20064;-65
2023/10/14 04:14:27;;;;;;;;;;;;;;;14.46;48.74;99975.00;3170064;28;19989;-64
2023/10/14 04:16:01;;;;;;;;;;;;;;;14.42;48.68;99973.50;3170177;28;20014;-65
2023/10/14 04:17:31;;;;;;;;;;;;;;;14.39;48.85;99973.69;3170086;28;20363;-65
2023/10/14 04:19:14;;;;;;;;;;;;;;;14.37;49.06;99975.53;3169857;28;20015;-66
2023/10/14 04:20:46;;;;;;;;;;;;;;;14.34;48.85;99976.56;3169704;28;20023;-65
2023/10/14 04:22:31;;;;;;;;;;;;;;;14.33;48.75;99973.09;3170131;28;19924;-66
2023/10/14 04:24:12;;;;;;;;;;;;;;;14.34;48.99;99984.41;3170098;28;19931;-67
2023/10/14 04:25:56;;;;;;;;;;;;;;;14.36;48.73;99974.69;3169804;28;19982;-66
2023/10/14 04:27:30;;;;;;;;;;;;;;;14.35;48.85;99980.88;3166655;28;19956;-64
2023/10/14 04:29:03;;;;;;;;;;;;;;;14.39;48.92;99984.16;3164864;28;19935;-65
2023/10/14 04:30:38;;;;;;;;;;;;;;;14.39;48.65;99977.13;3169558;28;19924;-66
2023/10/14 04:32:15;;;;;;;;;;;;;;;14.40;48.69;99983.22;3169971;28;19935;-69
2023/10/14 04:33:45;;;;;;;;;;;;;;;14.40;48.52;99989.28;3169621;28;19935;-65
2023/10/14 04:35:22;;;;;;;;;;;;;;;14.39;48.66;99989.41;3170299;28;19924;-66
2023/10/14 04:36:54;;;;;;;;;;;;;;;14.38;48.76;99987.72;3169914;28;20635;-66
2023/10/14 04:38:37;;;;;;;;;;;;;;;14.36;48.62;99986.97;3172193;28;19924;-68
2023/10/14 04:40:16;;;;;;;;;;;;;;;14.37;48.93;99991.25;3170047;28;19971;-68
2023/10/14 04:41:55;;;;;;;;;;;;;;;14.34;48.73;99982.66;3168484;28;19978;-67
2023/10/14 04:43:54;;;;;;;;;;;;;;;14.34;48.67;99982.66;3167759;28;19928;-68
2023/10/14 04:45:31;;;;;;;;;;;;;;;14.37;48.74;99986.03;3171188;28;19970;-65
2023/10/14 04:47:01;;;;;;;;;;;;;;;14.36;48.87;99984.34;3171097;28;19927;-66
2023/10/14 04:48:36;;;;;;;;;;;;;;;14.36;48.95;99989.59;3171467;28;19939;-65
2023/10/14 04:50:10;;;;;;;;;;;;;;;14.34;48.83;99984.41;3171418;28;19975;-65
2023/10/14 04:51:46;;;;;;;;;;;;;;;14.32;48.76;99986.31;3172155;28;19928;-65
2023/10/14 04:53:19;;;;;;;;;;;;;;;14.31;49.02;99985.44;3171210;28;19950;-65
2023/10/14 04:54:54;;;;;;;;;;;;;;;14.30;49.01;99985.53;3171146;28;19985;-65
2023/10/14 04:56:29;;;;;;;;;;;;;;;14.28;48.87;99988.22;3170324;28;19927;-69
2023/10/14 04:58:11;;;;;;;;;;;;;;;14.26;49.25;99991.91;3170874;27;20782;-69
2023/10/14 04:59:44;;;;;;;;;;;;;;;14.23;49.46;99987.66;3168931;28;19977;-68
2023/10/14 05:01:17;;;;;;;;;;;;;;;14.21;49.65;99986.91;3171779;28;19924;-70
2023/10/14 05:02:48;;;;;;;;;;;;;;;14.20;49.64;99992.25;3171788;28;19932;-70
2023/10/14 05:04:29;;;;;;;;;;;;;;;14.17;49.67;99997.63;3171552;28;19924;-71
2023/10/14 05:06:14;;;;;;;;;;;;;;;14.17;49.74;99992.38;3168865;28;19985;-68
2023/10/14 05:07:45;;;;;;;;;;;;;;;14.21;49.53;99994.75;3172076;28;20296;-68
2023/10/14 05:09:29;;;;;;;;;;;;;;;14.25;49.36;99990.19;3171245;28;19934;-74
2023/10/14 05:11:03;;;;;;;;;;;;;;;14.30;49.38;99998.63;3169633;28;19931;-70
2023/10/14 05:12:40;;;;;;;;;;;;;;;14.32;49.43;99995.00;3171936;28;19935;-68
2023/10/14 05:14:14;;;;;;;;;;;;;;;14.36;49.36;99995.66;3170450;28;19951;-70
2023/10/14 05:15:53;;;;;;;;;;;;;;;14.38;49.08;99998.22;3170823;27;20029;-69
2023/10/14 05:17:27;;;;;;;;;;;;;;;14.40;49.02;99994.53;3171276;28;20010;-69
2023/10/14 05:19:00;;;;;;;;;;;;;;;14.44;49.02;99997.84;3171149;28;20337;-68
2023/10/14 05:20:54;;;;;;;;;;;;;;;14.47;48.80;99995.03;3171651;28;19931;-69
2023/10/14 05:22:37;;;;;;;;;;;;;;;14.53;49.03;100002.59;3170168;28;19928;-72
2023/10/14 05:24:09;;;;;;;;;;;;;;;14.58;48.81;100003.13;3170437;27;20009;-74
2023/10/14 05:25:43;;;;;;;;;;;;;;;14.61;48.87;100000.38;3170117;28;19931;-74
2023/10/14 05:27:14;;;;;;;;;;;;;;;14.66;48.68;100005.31;3171521;28;20010;-73
2023/10/14 05:28:46;;;;;;;;;;;;;;;14.70;48.71;100004.19;3166784;28;19942;-73
2023/10/14 05:30:21;;;;;;;;;;;;;;;14.73;48.88;99998.78;3170257;28;19927;-74
2023/10/14 05:31:53;;;;;;;;;;;;;;;14.75;48.67;100003.00;3167746;27;20494;-69
2023/10/14 05:33:24;;;;;;;;;;;;;;;14.80;48.69;100010.59;3171617;28;20343;-69
2023/10/14 05:34:55;;;;;;;;;;;;;;;14.83;48.48;100010.41;3171275;28;19930;-69
2023/10/14 05:36:28;;;;;;;;;;;;;;;14.84;48.89;100009.47;3171178;27;20393;-67
2023/10/14 05:37:59;;;;;;;;;;;;;;;14.85;48.66;100012.94;3171397;27;20014;-71
2023/10/14 05:39:36;;;;;;;;;;;;;;;14.88;48.59;100012.75;3172225;28;19927;-68
2023/10/14 05:41:11;;;;;;;;;;;;;;;14.92;48.70;100009.03;3170292;28;20301;-69
2023/10/14 05:42:46;;;;;;;;;;;;;;;14.94;48.75;100008.00;3170363;28;20381;-67
2023/10/14 05:44:17;;;;;;;;;;;;;;;14.98;48.64;100009.50;3171528;28;19967;-68
2023/10/14 05:45:48;;;;;;;;;;;;;;;15.02;48.38;100013.63;3170588;27;19939;-68
2023/10/14 05:47:19;;;;;;;;;;;;;;;15.07;48.66;100010.72;3169938;28;19928;-72
2023/10/14 05:48:53;;;;;;;;;;;;;;;15.14;48.64;100011.19;3172009;27;19924;-71
2023/10/14 05:50:24;;;;;;;;;;;;;;;15.21;48.34;100013.34;3171757;28;19924;-69
2023/10/14 05:51:57;;;;;;;;;;;;;;;15.27;48.41;100009.50;3169588;28;19939;-68
2023/10/14 05:53:31;;;;;;;;;;;;;;;15.32;48.44;100022.34;3169235;28;20026;-65
2023/10/14 05:55:05;;;;;;;;;;;;;;;15.35;48.71;100017.75;3170717;28;19924;-68
2023/10/14 05:56:39;;;;;;;;;;;;;;;15.40;48.67;100015.69;3168524;28;20416;-66
2023/10/14 05:58:11;;;;;;;;;;;;;;;15.49;48.40;100019.53;3169613;27;20010;-68
2023/10/14 05:59:43;;;;;;;;;;;;;;;15.58;48.21;100021.56;3166115;28;19928;-70
2023/10/14 06:01:16;;;;;;;;;;;;;;;15.67;48.10;100014.91;3168315;28;20014;-70
2023/10/14 06:02:50;;;;;;;;;;;;;;;15.75;48.17;100014.47;3168070;27;20423;-68
2023/10/14 06:04:21;;;;;;;;;;;;;;;15.83;48.18;100010.41;3169541;28;19924;-70
2023/10/14 06:05:53;;;;;;;;;;;;;;;15.91;48.31;100015.16;3170871;28;19924;-69
2023/10/14 06:07:25;;;;;;;;;;;;;;;15.98;48.01;100015.63;3168011;28;19928;-67
2023/10/14 06:08:59;;;;;;;;;;;;;;;16.06;48.10;100014.19;3165926;28;20498;-69
2023/10/14 06:10:31;;;;;;;;;;;;;;;16.17;48.10;100016.13;3169622;28;19978;-69
2023/10/14 06:12:05;;;;;;;;;;;;;;;16.30;47.85;100006.50;3164208;27;19938;-65
2023/10/14 06:13:37;;;;;;;;;;;;;;;16.45;47.80;100012.53;3173467;27;19950;-68
2023/10/14 06:15:09;;;;;;;;;;;;;;;16.57;47.67;100018.75;3171515;27;19924;-65
2023/10/14 06:16:40;;;;;;;;;;;;;;;16.64;47.79;100012.13;3171450;28;19927;-69
2023/10/14 06:18:13;;;;;;;;;;;;;;;16.74;47.62;100007.97;3171864;27;19927;-66
2023/10/14 06:19:45;;;;;;;;;;;;;;;16.86;47.32;100008.97;3171194;27;20753;-66
2023/10/14 06:21:16;;;;;;;;;;;;;;;16.98;47.29;100002.03;3171724;28;19928;-67
2023/10/14 06:22:48;;;;;;;;;;;;;;;17.08;46.81;100003.06;3172783;27;19928;-65
2023/10/14 06:24:20;;;;;;;;;;;;;;;17.23;46.82;100004.63;3168182;28;19935;-67
2023/10/14 06:25:52;;;;;;;;;;;;;;;17.43;46.54;100011.13;3167089;28;19928;-65
2023/10/14 06:27:22;;;;;;;;;;;;;;;17.67;46.51;100005.91;3171519;28;19980;-66
2023/10/14 06:28:57;;;;;;;;;;;;;;;17.90;46.25;100006.09;3168457;28;20044;-73
2023/10/14 06:30:27;;;;;;;;;;;;;;;18.07;46.06;100007.47;3169252;28;19963;-72
2023/10/14 06:32:01;;;;;;;;;;;;;;;18.21;45.82;100012.59;3171702;28;19923;-77
2023/10/14 06:33:33;;;;;;;;;;;;;;;18.35;45.75;100009.78;3171433;28;19930;-74
2023/10/14 06:35:05;;;;;;;;;;;;;;;18.55;45.67;100013.56;3170738;28;19924;-68
2023/10/14 06:36:36;;;;;;;;;;;;;;;18.97;45.45;100013.09;3171154;28;19935;-70
2023/10/14 06:38:10;;;;;;;;;;;;;;;19.33;45.02;100006.78;3170557;28;19985;-71
2023/10/14 06:39:41;;;;;;;;;;;;;;;19.64;44.74;99996.41;3170964;28;19927;-72
2023/10/14 06:41:16;;;;;;;;;;;;;;;19.96;44.70;100002.63;3170160;28;19928;-72
2023/10/14 06:42:49;;;;;;;;;;;;;;;20.32;44.05;99997.09;3171176;28;19924;-70
2023/10/14 06:44:27;;;;;;;;;;;;;;;20.61;43.61;99992.88;3171017;28;19928;-74
2023/10/14 06:45:58;;;;;;;;;;;;;;;20.98;43.47;99994.25;3170653;28;20526;-72
2023/10/14 06:47:29;;;;;;;;;;;;;;;21.29;43.01;99997.72;3170484;28;19924;-70
2023/10/14 06:49:00;;;;;;;;;;;;;;;21.69;42.69;99994.25;3171065;28;19954;-71
2023/10/14 06:50:32;;;;;;;;;;;;;;;22.12;42.58;100001.84;3171085;28;19935;-72
2023/10/14 06:52:04;;;;;;;;;;;;;;;22.53;41.76;99994.63;3170840;28;19923;-71
2023/10/14 06:53:39;;;;;;;;;;;;;;;22.82;41.21;100002.53;3170604;28;19923;-68
2023/10/14 06:55:09;;;;;;;;;;;;;;;23.17;40.92;99999.25;3170846;28;20632;-72
2023/10/14 06:56:44;;;;;;;;;;;;;;;23.55;40.62;99994.75;3170206;28;20010;-67
2023/10/14 06:58:18;;;;;;;;;;;;;;;23.88;39.89;99989.84;3170776;28;19927;-70
2023/10/14 06:59:49;;;;;;;;;;;;;;;24.19;39.30;99992.13;3166073;28;20312;-68
2023/10/14 07:01:21;;;;;;;;;;;;;;;24.57;39.31;99987.47;3166083;28;19928;-67
2023/10/14 07:02:53;;;;;;;;;;;;;;;24.93;38.90;99988.22;3170970;28;20397;-66
2023/10/14 07:04:25;;;;;;;;;;;;;;;25.14;37.74;99987.88;3171044;28;20406;-66
2023/10/14 07:05:59;;;;;;;;;;;;;;;25.19;37.05;99981.06;3170517;28;19949;-66
2023/10/14 07:07:32;;;;;;;;;;;;;;;25.27;36.75;99992.78;3170366;28;19931;-66
2023/10/14 07:09:16;;;;;;;;;;;;;;;25.54;36.53;99983.72;3170745;28;19982;-68
2023/10/14 07:10:50;;;;;;;;;;;;;;;25.83;36.13;99986.00;3166892;28;19930;-68
2023/10/14 07:12:21;;;;;;;;;;;;;;;26.25;36.05;99990.41;3163155;28;20024;-69
2023/10/14 07:13:52;;;;;;;;;;;;;;;26.48;35.18;99985.25;3171067;28;19939;-69
2023/10/14 07:15:24;;;;;;;;;;;;;;;26.69;35.17;99982.06;3171236;28;20006;-69
2023/10/14 07:16:54;;;;;;;;;;;;;;;27.03;34.87;99983.66;3170879;28;20025;-69
2023/10/14 07:18:28;;;;;;;;;;;;;;;27.36;34.27;99985.28;3170903;28;19939;-70
2023/10/14 07:19:59;;;;;;;;;;;;;;;27.56;33.39;99977.63;3170806;28;19928;-69
2023/10/14 07:21:31;;;;;;;;;;;;;;;27.61;33.43;99977.94;3171573;28;20361;-70
2023/10/14 07:23:03;;;;;;;;;;;;;;;27.67;32.93;99968.41;3171102;28;19970;-68
2023/10/14 07:24:35;;;;;;;;;;;;;;;27.75;32.74;99972.88;3170662;28;19924;-68
2023/10/14 07:26:09;;;;;;;;;;;;;;;27.94;32.80;99968.94;3164924;28;20007;-68
2023/10/14 07:27:40;;;;;;;;;;;;;;;28.35;32.49;99970.28;3170300;28;19988;-68
2023/10/14 07:29:12;;;;;;;;;;;;;;;28.76;31.79;99969.09;3167648;28;19928;-71
2023/10/14 07:30:46;;;;;;;;;;;;;;;29.07;31.52;99977.00;3168340;28;19931;-70
2023/10/14 07:32:19;;;;;;;;;;;;;;;29.36;31.16;99961.91;3170750;28;20069;-67
2023/10/14 07:33:49;;;;;;;;;;;;;;;29.63;30.45;99966.59;3170461;28;20304;-71
2023/10/14 07:35:22;;;;;;;;;;;;;;;29.58;29.80;99973.50;3170847;28;19928;-70
2023/10/14 07:36:53;;;;;;;;;;;;;;;29.35;29.69;99971.00;3170647;28;20370;-69
2023/10/14 07:38:25;;;;;;;;;;;;;;;29.11;29.69;99959.53;3170629;28;20344;-71
2023/10/14 07:39:57;;;;;;;;;;;;;;;29.12;29.74;99966.56;3170725;28;20407;-70
2023/10/14 07:41:28;;;;;;;;;;;;;;;29.52;29.97;99961.72;3166040;28;19931;-68
2023/10/14 07:43:05;;;;;;;;;;;;;;;30.01;29.45;99961.00;3170366;28;19924;-69
2023/10/14 07:44:36;;;;;;;;;;;;;;;30.24;28.73;99960.03;3170629;28;19931;-70
2023/10/14 07:46:08;;;;;;;;;;;;;;;30.42;28.89;99964.94;3170695;28;19928;-70
2023/10/14 07:47:40;;;;;;;;;;;;;;;30.49;28.34;99958.56;3170402;28;19971;-70
2023/10/14 07:49:13;;;;;;;;;;;;;;;30.44;28.13;99957.47;3170786;28;19935;-70
2023/10/14 07:50:47;;;;;;;;;;;;;;;30.41;28.23;99956.03;3170849;28;19941;-68
2023/10/14 07:52:20;;;;;;;;;;;;;;;30.40;27.65;99953.53;3170211;28;19934;-72
2023/10/14 07:53:51;;;;;;;;;;;;;;;30.19;28.05;99951.66;3169850;28;19934;-67
2023/10/14 07:55:25;;;;;;;;;;;;;;;30.15;27.88;99945.88;3170064;28;19924;-69
2023/10/14 07:56:56;;;;;;;;;;;;;;;30.34;28.14;99944.38;3165827;28;20336;-70
2023/10/14 07:58:28;;;;;;;;;;;;;;;30.38;27.17;99945.69;3167738;28;19924;-71
2023/10/14 08:00:09;;;;;;;;;;;;;;;30.34;27.31;99945.22;3163086;28;19982;-73
2023/10/14 08:01:41;;;;;;;;;;;;;;;30.11;26.69;99944.56;3167645;28;20374;-71
2023/10/14 08:03:16;;;;;;;;;;;;;;;29.73;26.57;99946.66;3170424;28;20346;-71
2023/10/14 08:04:53;;;;;;;;;;;;;;;29.63;27.62;99938.94;3170278;28;19934;-72
2023/10/14 08:06:25;;;;;;;;;;;;;;;29.93;27.12;99942.34;3170359;28;19931;-74
2023/10/14 08:07:56;;;;;;;;;;;;;;;29.92;27.05;99940.69;3170193;28;19927;-69